createdAt,value
2018-04-12T00:00:23.365Z,38.60
2018-04-12T00:01:23.387Z,41.10
2018-04-12T00:02:23.396Z,40.20
2018-04-12T00:03:23.423Z,41.40
2018-04-12T00:04:23.433Z,40.60
2018-04-12T00:05:23.456Z,38.90
2018-04-12T00:06:23.471Z,38.60
2018-04-12T00:07:23.489Z,38.90
2018-04-12T00:08:23.501Z,40.00
2018-04-12T00:09:23.520Z,39.60
2018-04-12T00:10:23.539Z,39.20
2018-04-12T00:11:23.554Z,39.30
2018-04-12T00:12:23.572Z,39.60
2018-04-12T00:13:23.590Z,38.40
2018-04-12T00:14:23.604Z,38.70
2018-04-12T00:15:23.622Z,37.70
2018-04-12T00:16:23.641Z,38.00
2018-04-12T00:17:23.664Z,39.50
2018-04-12T00:18:23.679Z,38.90
2018-04-12T00:19:23.693Z,38.30
2018-04-12T00:20:23.711Z,37.80
2018-04-12T00:21:23.737Z,38.50
2018-04-12T00:22:23.745Z,39.50
2018-04-12T00:23:23.762Z,38.50
2018-04-12T00:24:23.783Z,37.90
2018-04-12T00:25:23.802Z,38.60
2018-04-12T00:26:23.817Z,39.10
2018-04-12T00:27:23.844Z,38.70
2018-04-12T00:28:23.851Z,39.30
2018-04-12T00:29:23.869Z,38.90
2018-04-12T00:30:23.886Z,40.50
2018-04-12T00:31:23.908Z,39.00
2018-04-12T00:32:23.921Z,39.10
2018-04-12T00:33:23.939Z,38.30
2018-04-12T00:34:23.957Z,40.10
2018-04-12T00:35:23.973Z,39.00
2018-04-12T00:36:23.993Z,41.00
2018-04-12T00:37:24.010Z,41.10
2018-04-12T00:38:24.024Z,40.20
2018-04-12T00:39:24.041Z,40.80
2018-04-12T00:40:24.066Z,39.70
2018-04-12T00:41:24.083Z,40.60
2018-04-12T00:42:24.096Z,41.70
2018-04-12T00:43:24.113Z,38.90
2018-04-12T00:44:24.130Z,40.00
2018-04-12T00:45:24.148Z,39.40
2018-04-12T00:46:24.174Z,41.20
2018-04-12T00:47:24.190Z,38.80
2018-04-12T00:48:24.200Z,40.10
2018-04-12T00:49:24.271Z,39.20
2018-04-12T00:50:24.237Z,39.50
2018-04-12T00:51:24.255Z,40.10
2018-04-12T00:52:24.268Z,39.80
2018-04-12T00:53:24.304Z,39.40
2018-04-12T00:54:24.304Z,39.30
2018-04-12T00:55:24.321Z,41.30
2018-04-12T00:56:24.340Z,41.20
2018-04-12T00:57:24.357Z,39.10
2018-04-12T00:58:24.374Z,41.10
2018-04-12T00:59:24.391Z,40.50
2018-04-12T01:00:24.410Z,41.30
2018-04-12T01:01:24.431Z,40.40
2018-04-12T01:02:24.443Z,41.70
2018-04-12T01:03:24.465Z,41.80
2018-04-12T01:04:24.479Z,43.20
2018-04-12T01:05:24.496Z,43.50
2018-04-12T01:06:24.515Z,43.20
2018-04-12T01:07:24.529Z,44.10
2018-04-12T01:08:24.551Z,43.40
2018-04-12T01:09:24.568Z,44.60
2018-04-12T01:10:24.593Z,46.00
2018-04-12T01:11:24.608Z,47.30
2018-04-12T01:12:24.621Z,48.10
2018-04-12T01:13:24.636Z,45.60
2018-04-12T01:14:24.654Z,46.60
2018-04-12T01:15:24.675Z,48.20
2018-04-12T01:16:24.822Z,47.20
2018-04-12T01:17:24.708Z,48.40
2018-04-12T01:18:24.735Z,48.60
2018-04-12T01:19:24.743Z,47.30
2018-04-12T01:20:24.757Z,47.70
2018-04-12T01:21:24.783Z,48.60
2018-04-12T01:22:24.792Z,48.80
2018-04-12T01:23:24.810Z,48.00
2018-04-12T01:24:24.829Z,48.90
2018-04-12T01:25:24.847Z,48.70
2018-04-12T01:26:24.861Z,51.10
2018-04-12T01:27:24.878Z,48.60
2018-04-12T01:28:24.896Z,50.00
2018-04-12T01:29:24.922Z,50.20
2018-04-12T01:30:24.937Z,49.90
2018-04-12T01:31:24.955Z,51.80
2018-04-12T01:32:24.967Z,50.60
2018-04-12T01:33:24.982Z,52.50
2018-04-12T01:34:25.004Z,51.50
2018-04-12T01:35:25.018Z,52.50
2018-04-12T01:36:25.037Z,50.70
2018-04-12T01:37:25.054Z,51.80
2018-04-12T01:38:25.070Z,52.00
2018-04-12T01:39:25.094Z,52.40
2018-04-12T01:40:25.110Z,51.70
2018-04-12T01:41:25.128Z,53.40
2018-04-12T01:42:25.136Z,51.60
2018-04-12T01:43:25.159Z,51.70
2018-04-12T01:44:25.176Z,51.70
2018-04-12T01:45:25.193Z,52.90
2018-04-12T01:46:25.209Z,54.80
2018-04-12T01:47:25.227Z,53.10
2018-04-12T01:48:25.245Z,52.10
2018-04-12T01:49:25.260Z,53.00
2018-04-12T01:50:25.278Z,53.30
2018-04-12T01:51:25.297Z,52.40
2018-04-12T01:52:25.314Z,53.20
2018-04-12T01:53:25.330Z,53.80
2018-04-12T01:54:25.348Z,54.70
2018-04-12T01:55:25.364Z,53.10
2018-04-12T01:56:25.382Z,55.70
2018-04-12T01:57:25.404Z,53.50
2018-04-12T01:58:25.416Z,53.80
2018-04-12T01:59:25.437Z,54.60
2018-04-12T02:00:25.450Z,54.10
2018-04-12T02:01:25.473Z,54.80
2018-04-12T02:02:25.486Z,53.10
2018-04-12T02:03:25.503Z,54.10
2018-04-12T02:04:25.553Z,53.80
2018-04-12T02:05:25.539Z,53.50
2018-04-12T02:06:25.558Z,53.20
2018-04-12T02:07:25.576Z,55.40
2018-04-12T02:08:25.596Z,54.40
2018-04-12T02:09:25.616Z,54.00
2018-04-12T02:10:25.630Z,55.50
2018-04-12T02:11:25.644Z,55.40
2018-04-12T02:12:25.664Z,54.90
2018-04-12T02:13:25.681Z,52.90
2018-04-12T02:14:25.702Z,53.80
2018-04-12T02:15:25.716Z,53.20
2018-04-12T02:16:25.733Z,54.70
2018-04-12T02:17:25.752Z,53.80
2018-04-12T02:18:25.771Z,54.80
2018-04-12T02:19:25.785Z,54.80
2018-04-12T02:20:25.804Z,54.60
2018-04-12T02:21:25.825Z,54.30
2018-04-12T02:22:25.839Z,54.40
2018-04-12T02:23:25.858Z,54.20
2018-04-12T02:24:25.879Z,55.30
2018-04-12T02:25:25.893Z,54.50
2018-04-12T02:26:25.912Z,55.80
2018-04-12T02:27:25.927Z,56.60
2018-04-12T02:28:25.947Z,55.70
2018-04-12T02:29:25.965Z,56.60
2018-04-12T02:30:25.980Z,55.60
2018-04-12T02:31:25.999Z,57.10
2018-04-12T02:32:26.018Z,58.20
2018-04-12T02:33:26.043Z,58.40
2018-04-12T02:34:26.055Z,59.50
2018-04-12T02:35:26.072Z,58.10
2018-04-12T02:36:26.095Z,57.50
2018-04-12T02:37:26.108Z,57.60
2018-04-12T02:38:26.124Z,58.70
2018-04-12T02:39:26.143Z,59.40
2018-04-12T02:40:26.160Z,58.90
2018-04-12T02:41:26.178Z,58.60
2018-04-12T02:42:26.196Z,60.30
2018-04-12T02:43:26.212Z,61.40
2018-04-12T02:44:26.231Z,60.80
2018-04-12T02:45:26.251Z,61.60
2018-04-12T02:46:26.269Z,59.70
2018-04-12T02:47:26.287Z,60.10
2018-04-12T02:48:26.305Z,59.10
2018-04-12T02:49:26.324Z,59.00
2018-04-12T02:50:26.342Z,59.80
2018-04-12T02:51:26.363Z,61.00
2018-04-12T02:52:26.374Z,61.10
2018-04-12T02:53:26.392Z,60.40
2018-04-12T02:54:26.409Z,60.00
2018-04-12T02:55:26.427Z,60.10
2018-04-12T02:56:26.448Z,60.30
2018-04-12T02:57:26.462Z,61.80
2018-04-12T02:58:26.482Z,62.00
2018-04-12T02:59:26.499Z,61.50
2018-04-12T03:00:26.517Z,62.60
2018-04-12T03:01:26.536Z,62.70
2018-04-12T03:02:26.553Z,61.40
2018-04-12T03:03:26.570Z,61.80
2018-04-12T03:04:26.586Z,61.20
2018-04-12T03:05:26.605Z,61.50
2018-04-12T03:06:26.622Z,62.40
2018-04-12T03:07:26.642Z,62.20
2018-04-12T03:08:26.658Z,61.60
2018-04-12T03:09:26.673Z,64.20
2018-04-12T03:10:26.690Z,64.00
2018-04-12T03:11:26.712Z,63.10
2018-04-12T03:12:26.752Z,63.90
2018-04-12T03:13:26.744Z,61.80
2018-04-12T03:14:26.761Z,64.90
2018-04-12T03:15:26.780Z,64.20
2018-04-12T03:16:26.797Z,65.00
2018-04-12T03:17:26.816Z,64.90
2018-04-12T03:18:26.829Z,64.50
2018-04-12T03:19:26.848Z,64.70
2018-04-12T03:20:26.868Z,65.60
2018-04-12T03:21:26.883Z,66.10
2018-04-12T03:22:26.899Z,64.10
2018-04-12T03:23:26.918Z,63.80
2018-04-12T03:24:26.942Z,65.10
2018-04-12T03:25:26.953Z,67.10
2018-04-12T03:26:26.970Z,64.50
2018-04-12T03:27:26.987Z,65.10
2018-04-12T03:28:27.005Z,65.20
2018-04-12T03:29:27.022Z,65.20
2018-04-12T03:30:27.044Z,65.10
2018-04-12T03:31:27.066Z,65.10
2018-04-12T03:32:27.075Z,65.60
2018-04-12T03:33:27.091Z,63.80
2018-04-12T03:34:27.109Z,65.50
2018-04-12T03:35:27.123Z,65.60
2018-04-12T03:36:27.144Z,64.90
2018-04-12T03:37:27.160Z,65.00
2018-04-12T03:38:27.232Z,64.20
2018-04-12T03:39:27.195Z,66.00
2018-04-12T03:40:27.211Z,66.70
2018-04-12T03:41:27.232Z,65.90
2018-04-12T03:42:27.246Z,69.20
2018-04-12T03:43:27.262Z,47.20
2018-04-12T03:44:27.282Z,66.00
2018-04-12T03:45:27.300Z,65.90
2018-04-12T03:46:27.316Z,66.90
2018-04-12T03:47:27.335Z,66.70
2018-04-12T03:48:27.349Z,65.60
2018-04-12T03:49:27.406Z,67.00
2018-04-12T03:50:27.390Z,68.80
2018-04-12T03:51:27.403Z,66.90
2018-04-12T03:52:27.419Z,67.90
2018-04-12T03:53:27.437Z,64.80
2018-04-12T03:54:27.455Z,68.90
2018-04-12T03:55:27.475Z,66.80
2018-04-12T03:56:27.489Z,66.20
2018-04-12T03:57:27.503Z,66.60
2018-04-12T03:58:27.521Z,66.60
2018-04-12T03:59:27.543Z,66.50
2018-04-12T04:00:27.556Z,67.00
2018-04-12T04:01:27.572Z,66.10
2018-04-12T04:02:27.589Z,65.70
2018-04-12T04:03:27.604Z,69.20
2018-04-12T04:04:27.624Z,65.80
2018-04-12T04:05:27.641Z,67.10
2018-04-12T04:06:27.661Z,67.00
2018-04-12T04:07:27.675Z,67.00
2018-04-12T04:08:27.692Z,65.00
2018-04-12T04:09:27.708Z,65.50
2018-04-12T04:10:27.726Z,66.10
2018-04-12T04:11:27.741Z,68.40
2018-04-12T04:12:27.757Z,67.80
2018-04-12T04:13:27.778Z,66.80
2018-04-12T04:14:27.808Z,66.20
2018-04-12T04:15:27.811Z,67.50
2018-04-12T04:16:27.832Z,65.80
2018-04-12T04:17:27.852Z,67.90
2018-04-12T04:18:27.859Z,69.40
2018-04-12T04:19:27.893Z,65.40
2018-04-12T04:20:27.894Z,66.80
2018-04-12T04:21:27.915Z,70.40
2018-04-12T04:22:27.935Z,70.20
2018-04-12T04:23:27.960Z,66.40
2018-04-12T04:24:27.980Z,68.70
2018-04-12T04:25:28.008Z,67.10
2018-04-12T04:26:28.020Z,64.90
2018-04-12T04:27:28.024Z,65.90
2018-04-12T04:28:28.040Z,65.70
2018-04-12T04:29:28.050Z,66.30
2018-04-12T04:30:28.075Z,65.90
2018-04-12T04:31:28.091Z,67.70
2018-04-12T04:32:28.098Z,65.80
2018-04-12T04:33:28.117Z,67.90
2018-04-12T04:34:28.132Z,66.50
2018-04-12T04:35:28.152Z,66.50
2018-04-12T04:36:28.165Z,69.50
2018-04-12T04:37:28.191Z,68.20
2018-04-12T04:38:28.199Z,69.90
2018-04-12T04:39:28.218Z,70.80
2018-04-12T04:40:28.235Z,70.40
2018-04-12T04:41:28.250Z,70.10
2018-04-12T04:42:28.268Z,70.90
2018-04-12T04:43:28.285Z,71.00
2018-04-12T04:44:28.302Z,67.60
2018-04-12T04:45:28.320Z,70.50
2018-04-12T04:46:28.340Z,71.40
2018-04-12T04:47:28.354Z,70.60
2018-04-12T04:48:28.378Z,72.70
2018-04-12T04:49:28.406Z,71.80
2018-04-12T04:50:28.404Z,71.80
2018-04-12T04:51:28.421Z,73.00
2018-04-12T04:52:28.443Z,71.80
2018-04-12T04:53:28.455Z,69.70
2018-04-12T04:54:28.469Z,72.00
2018-04-12T04:55:28.486Z,69.30
2018-04-12T04:56:28.508Z,70.90
2018-04-12T04:57:28.523Z,67.00
2018-04-12T04:58:28.537Z,69.80
2018-04-12T04:59:28.553Z,70.40
2018-04-12T05:00:28.569Z,69.70
2018-04-12T05:01:28.635Z,68.50
2018-04-12T05:02:28.605Z,68.50
2018-04-12T05:03:28.621Z,69.80
2018-04-12T05:04:28.640Z,68.00
2018-04-12T05:05:28.656Z,69.10
2018-04-12T05:06:28.671Z,70.90
2018-04-12T05:07:28.693Z,66.30
2018-04-12T05:08:28.705Z,69.20
2018-04-12T05:09:28.727Z,70.00
2018-04-12T05:10:28.742Z,70.00
2018-04-12T05:11:28.756Z,66.50
2018-04-12T05:12:28.774Z,67.40
2018-04-12T05:13:28.793Z,71.00
2018-04-12T05:14:28.817Z,68.70
2018-04-12T05:15:28.865Z,68.40
2018-04-12T05:16:28.839Z,70.00
2018-04-12T05:17:28.859Z,66.70
2018-04-12T05:18:28.878Z,70.20
2018-04-12T05:19:28.892Z,71.70
2018-04-12T05:20:28.908Z,68.00
2018-04-12T05:21:28.924Z,66.20
2018-04-12T05:22:28.946Z,68.30
2018-04-12T05:23:28.958Z,68.30
2018-04-12T05:24:28.974Z,67.80
2018-04-12T05:25:28.992Z,68.80
2018-04-12T05:26:29.013Z,68.70
2018-04-12T05:27:29.027Z,69.90
2018-04-12T05:28:29.042Z,68.90
2018-04-12T05:29:29.060Z,69.00
2018-04-12T05:30:29.080Z,69.20
2018-04-12T05:31:29.094Z,67.00
2018-04-12T05:32:29.111Z,68.80
2018-04-12T05:33:29.128Z,68.00
2018-04-12T05:34:29.145Z,66.60
2018-04-12T05:35:29.159Z,66.10
2018-04-12T05:36:29.179Z,66.80
2018-04-12T05:37:29.195Z,69.80
2018-04-12T05:38:29.209Z,66.60
2018-04-12T05:39:29.232Z,66.90
2018-04-12T05:40:29.249Z,68.50
2018-04-12T05:41:29.262Z,69.50
2018-04-12T05:42:29.283Z,66.80
2018-04-12T05:43:29.296Z,66.40
2018-04-12T05:44:29.314Z,68.60
2018-04-12T05:45:29.339Z,64.40
2018-04-12T05:46:29.349Z,64.70
2018-04-12T05:47:29.366Z,65.40
2018-04-12T05:48:29.384Z,65.50
2018-04-12T05:49:29.397Z,66.40
2018-04-12T05:50:29.413Z,62.20
2018-04-12T05:51:29.432Z,65.20
2018-04-12T05:52:29.453Z,62.30
2018-04-12T05:53:29.468Z,64.90
2018-04-12T05:54:29.485Z,65.10
2018-04-12T05:55:29.502Z,65.90
2018-04-12T05:56:29.521Z,64.00
2018-04-12T05:57:29.536Z,63.40
2018-04-12T05:58:29.557Z,63.90
2018-04-12T05:59:29.605Z,61.80
2018-04-12T06:00:29.587Z,60.70
2018-04-12T06:01:29.605Z,64.50
2018-04-12T06:02:29.623Z,64.70
2018-04-12T06:03:29.640Z,66.00
2018-04-12T06:04:29.655Z,62.60
2018-04-12T06:05:29.675Z,64.20
2018-04-12T06:06:29.688Z,63.90
2018-04-12T06:07:29.710Z,62.10
2018-04-12T06:08:29.728Z,63.50
2018-04-12T06:09:29.745Z,60.90
2018-04-12T06:10:29.763Z,62.50
2018-04-12T06:11:29.777Z,59.90
2018-04-12T06:12:29.794Z,63.50
2018-04-12T06:13:29.816Z,63.50
2018-04-12T06:14:29.832Z,61.50
2018-04-12T06:15:29.847Z,62.50
2018-04-12T06:16:29.867Z,60.70
2018-04-12T06:17:29.883Z,62.00
2018-04-12T06:18:29.903Z,61.10
2018-04-12T06:19:29.917Z,61.70
2018-04-12T06:20:29.992Z,60.00
2018-04-12T06:21:29.957Z,58.60
2018-04-12T06:22:29.972Z,60.50
2018-04-12T06:23:29.989Z,56.30
2018-04-12T06:24:30.009Z,58.10
2018-04-12T06:25:30.025Z,59.40
2018-04-12T06:26:30.045Z,56.60
2018-04-12T06:27:30.060Z,57.20
2018-04-12T06:28:30.126Z,57.40
2018-04-12T06:29:30.129Z,55.30
2018-04-12T06:30:30.116Z,55.70
2018-04-12T06:31:30.130Z,56.20
2018-04-12T06:32:30.153Z,54.30
2018-04-12T06:33:30.169Z,57.00
2018-04-12T06:34:30.189Z,54.60
2018-04-12T06:35:30.205Z,54.40
2018-04-12T06:36:30.224Z,53.00
2018-04-12T06:37:30.243Z,52.10
2018-04-12T06:38:30.257Z,53.40
2018-04-12T06:39:30.276Z,52.40
2018-04-12T06:40:30.295Z,53.80
2018-04-12T06:41:30.316Z,53.40
2018-04-12T06:42:30.331Z,54.00
2018-04-12T06:43:30.349Z,53.00
2018-04-12T06:44:30.369Z,52.30
2018-04-12T06:45:30.392Z,53.40
2018-04-12T06:46:30.405Z,51.80
2018-04-12T06:47:30.422Z,54.70
2018-04-12T06:48:30.439Z,52.40
2018-04-12T06:49:30.461Z,51.50
2018-04-12T06:50:30.478Z,52.90
2018-04-12T06:51:30.496Z,51.40
2018-04-12T06:52:30.515Z,53.40
2018-04-12T06:53:30.537Z,52.20
2018-04-12T06:54:30.550Z,53.40
2018-04-12T06:55:30.570Z,51.60
2018-04-12T06:56:30.593Z,53.20
2018-04-12T06:57:30.606Z,52.00
2018-04-12T06:58:30.627Z,50.90
2018-04-12T06:59:30.646Z,51.40
2018-04-12T07:00:30.661Z,53.00
2018-04-12T07:01:30.680Z,51.90
2018-04-12T07:02:30.697Z,52.50
2018-04-12T07:03:30.716Z,51.50
2018-04-12T07:04:30.733Z,50.20
2018-04-12T07:05:30.751Z,50.40
2018-04-12T07:06:30.768Z,49.10
2018-04-12T07:07:30.787Z,50.30
2018-04-12T07:08:30.808Z,50.60
2018-04-12T07:09:30.824Z,49.30
2018-04-12T07:10:30.841Z,48.70
2018-04-12T07:11:30.863Z,49.60
2018-04-12T07:12:30.877Z,50.00
2018-04-12T07:13:30.897Z,48.20
2018-04-12T07:14:30.915Z,48.10
2018-04-12T07:15:30.933Z,48.20
2018-04-12T07:16:30.949Z,49.40
2018-04-12T07:17:30.971Z,47.30
2018-04-12T07:18:30.986Z,48.10
2018-04-12T07:19:31.005Z,47.70
2018-04-12T07:20:31.031Z,48.40
2018-04-12T07:21:31.042Z,47.10
2018-04-12T07:22:31.061Z,47.70
2018-04-12T07:23:31.078Z,47.40
2018-04-12T07:24:31.094Z,48.30
2018-04-12T07:25:31.114Z,48.10
2018-04-12T07:26:31.133Z,48.20
2018-04-12T07:27:31.154Z,45.10
2018-04-12T07:28:31.172Z,47.00
2018-04-12T07:29:31.193Z,46.80
2018-04-12T07:30:31.209Z,46.60
2018-04-12T07:31:31.226Z,46.30
2018-04-12T07:32:31.247Z,46.80
2018-04-12T07:33:31.264Z,44.80
2018-04-12T07:34:31.284Z,46.20
2018-04-12T07:35:31.300Z,46.30
2018-04-12T07:36:31.320Z,44.40
2018-04-12T07:37:31.341Z,45.40
2018-04-12T07:38:31.360Z,44.50
2018-04-12T07:39:31.379Z,43.50
2018-04-12T07:40:31.399Z,43.60
2018-04-12T07:41:31.429Z,44.70
2018-04-12T07:42:31.440Z,44.10
2018-04-12T07:43:31.460Z,45.20
2018-04-12T07:44:31.483Z,44.00
2018-04-12T07:45:31.506Z,43.70
2018-04-12T07:46:31.521Z,42.40
2018-04-12T07:47:31.541Z,41.90
2018-04-12T07:48:31.563Z,43.30
2018-04-12T07:49:31.623Z,41.50
2018-04-12T07:50:31.608Z,41.40
2018-04-12T07:51:31.628Z,41.00
2018-04-12T07:52:31.652Z,43.20
2018-04-12T07:53:31.678Z,42.30
2018-04-12T07:54:31.705Z,40.50
2018-04-12T07:55:31.773Z,37.90
2018-04-12T07:56:31.739Z,42.40
2018-04-12T07:57:31.763Z,41.80
2018-04-12T07:58:31.782Z,43.80
2018-04-12T07:59:31.803Z,42.70
2018-04-12T08:00:31.827Z,44.80
2018-04-12T08:01:31.846Z,43.20
2018-04-12T08:02:31.864Z,42.70
2018-04-12T08:03:31.885Z,43.30
2018-04-12T08:04:31.908Z,44.00
2018-04-12T08:05:31.930Z,44.00
2018-04-12T08:06:31.949Z,43.30
2018-04-12T08:07:31.971Z,41.40
2018-04-12T08:08:31.989Z,41.20
2018-04-12T08:09:32.010Z,42.70
2018-04-12T08:10:32.027Z,40.80
2018-04-12T08:11:32.048Z,42.90
2018-04-12T08:12:32.068Z,42.70
2018-04-12T08:13:32.088Z,42.30
2018-04-12T08:14:32.106Z,42.10
2018-04-12T08:15:32.128Z,41.60
2018-04-12T08:16:32.147Z,41.80
2018-04-12T08:17:32.167Z,40.70
2018-04-12T08:18:32.196Z,40.30
2018-04-12T08:19:32.205Z,39.50
2018-04-12T08:20:32.227Z,40.80
2018-04-12T08:21:32.247Z,42.00
2018-04-12T08:22:32.269Z,41.60
2018-04-12T08:23:32.297Z,42.00
2018-04-12T08:24:32.309Z,42.80
2018-04-12T08:25:32.329Z,41.10
2018-04-12T08:26:32.348Z,41.70
2018-04-12T08:27:32.368Z,42.00
2018-04-12T08:28:32.386Z,41.60
2018-04-12T08:29:32.405Z,41.50
2018-04-12T08:30:32.424Z,41.60
2018-04-12T08:31:32.442Z,41.60
2018-04-12T08:32:32.463Z,40.40
2018-04-12T08:33:32.484Z,41.00
2018-04-12T08:34:32.507Z,41.40
2018-04-12T08:35:32.524Z,41.40
2018-04-12T08:36:32.544Z,41.20
2018-04-12T08:37:32.566Z,39.90
2018-04-12T08:38:32.584Z,39.60
2018-04-12T08:39:32.603Z,40.40
2018-04-12T08:40:32.623Z,40.50
2018-04-12T08:41:32.649Z,40.40
2018-04-12T08:42:32.663Z,39.40
2018-04-12T08:43:32.686Z,40.70
2018-04-12T08:44:32.703Z,40.20
2018-04-12T08:45:32.725Z,40.30
2018-04-12T08:46:32.745Z,40.10
2018-04-12T08:47:32.770Z,39.70
2018-04-12T08:48:32.784Z,39.00
2018-04-12T08:49:32.805Z,39.10
2018-04-12T08:50:32.826Z,37.60
2018-04-12T08:51:32.849Z,38.30
2018-04-12T08:52:32.868Z,37.60
2018-04-12T08:53:32.886Z,38.70
2018-04-12T08:54:32.915Z,39.90
2018-04-12T08:55:32.929Z,37.40
2018-04-12T08:56:32.944Z,37.90
2018-04-12T08:57:32.970Z,39.40
2018-04-12T08:58:33.016Z,36.80
2018-04-12T08:59:33.006Z,37.80
2018-04-12T09:00:33.032Z,38.10
2018-04-12T09:01:33.054Z,37.20
2018-04-12T09:02:33.069Z,38.00
2018-04-12T09:03:33.086Z,37.80
2018-04-12T09:04:33.108Z,36.20
2018-04-12T09:05:33.134Z,36.90
2018-04-12T09:06:33.147Z,37.40
2018-04-12T09:07:33.172Z,37.30
2018-04-12T09:08:33.190Z,38.00
2018-04-12T09:09:33.217Z,36.70
2018-04-12T09:10:33.234Z,38.30
2018-04-12T09:11:33.264Z,37.20
2018-04-12T09:12:33.277Z,37.40
2018-04-12T09:13:33.296Z,36.40
2018-04-12T09:14:33.312Z,36.10
2018-04-12T09:15:33.332Z,37.30
2018-04-12T09:16:33.356Z,37.70
2018-04-12T09:17:33.376Z,38.30
2018-04-12T09:18:33.392Z,37.60
2018-04-12T09:19:33.416Z,38.10
2018-04-12T09:20:33.435Z,37.60
2018-04-12T09:21:33.456Z,38.50
2018-04-12T09:22:33.475Z,37.80
2018-04-12T09:23:33.497Z,37.40
2018-04-12T09:24:33.521Z,35.90
2018-04-12T09:25:33.539Z,38.50
2018-04-12T09:26:33.558Z,37.80
2018-04-12T09:27:33.581Z,37.80
2018-04-12T09:28:33.601Z,36.00
2018-04-12T09:29:33.620Z,38.90
2018-04-12T09:30:33.653Z,36.20
2018-04-12T09:31:33.670Z,37.50
2018-04-12T09:32:33.685Z,36.90
2018-04-12T09:33:33.705Z,36.00
2018-04-12T09:34:33.724Z,36.60
2018-04-12T09:35:33.746Z,37.50
2018-04-12T09:36:33.766Z,36.30
2018-04-12T09:37:33.786Z,36.70
2018-04-12T09:38:33.809Z,37.40
2018-04-12T09:39:33.831Z,36.40
2018-04-12T09:40:33.853Z,35.80
2018-04-12T09:41:33.869Z,35.40
2018-04-12T09:42:33.892Z,36.40
2018-04-12T09:43:33.912Z,34.60
2018-04-12T09:44:33.934Z,37.90
2018-04-12T09:45:33.952Z,37.00
2018-04-12T09:46:33.978Z,38.20
2018-04-12T09:47:34.000Z,37.60
2018-04-12T09:48:34.017Z,36.40
2018-04-12T09:49:34.035Z,38.40
2018-04-12T09:50:34.055Z,36.70
2018-04-12T09:51:34.084Z,37.40
2018-04-12T09:52:34.103Z,37.50
2018-04-12T09:53:34.117Z,36.40
2018-04-12T09:54:34.140Z,38.00
2018-04-12T09:55:34.162Z,37.00
2018-04-12T09:56:34.182Z,39.00
2018-04-12T09:57:34.199Z,39.40
2018-04-12T09:58:34.224Z,40.20
2018-04-12T09:59:34.245Z,38.30
2018-04-12T10:00:34.276Z,38.90
2018-04-12T10:01:34.284Z,38.10
2018-04-12T10:02:34.305Z,39.60
2018-04-12T10:03:34.328Z,39.80
2018-04-12T10:04:34.346Z,38.90
2018-04-12T10:05:34.368Z,41.30
2018-04-12T10:06:34.398Z,39.30
2018-04-12T10:07:34.408Z,38.40
2018-04-12T10:08:34.428Z,40.00
2018-04-12T10:09:34.454Z,39.70
2018-04-12T10:10:34.477Z,39.80
2018-04-12T10:11:34.492Z,39.90
2018-04-12T10:12:34.511Z,41.20
2018-04-12T10:13:34.529Z,39.70
2018-04-12T10:14:34.547Z,42.00
2018-04-12T10:15:34.576Z,42.60
2018-04-12T10:16:34.632Z,42.80
2018-04-12T10:17:34.610Z,43.10
2018-04-12T10:18:34.637Z,43.10
2018-04-12T10:19:34.652Z,45.00
2018-04-12T10:20:34.669Z,43.30
2018-04-12T10:21:34.744Z,42.60
2018-04-12T10:22:34.710Z,43.70
2018-04-12T10:23:34.729Z,42.60
2018-04-12T10:24:34.748Z,43.70
2018-04-12T10:25:34.807Z,42.50
2018-04-12T10:26:34.790Z,42.60
2018-04-12T10:27:34.810Z,44.10
2018-04-12T10:28:34.830Z,44.70
2018-04-12T10:29:34.851Z,46.10
2018-04-12T10:30:34.868Z,44.90
2018-04-12T10:31:34.892Z,44.80
2018-04-12T10:32:34.913Z,43.10
2018-04-12T10:33:34.939Z,45.10
2018-04-12T10:34:34.946Z,44.30
2018-04-12T10:35:34.969Z,45.00
2018-04-12T10:36:34.991Z,44.40
2018-04-12T10:37:35.007Z,42.80
2018-04-12T10:38:35.036Z,44.40
2018-04-12T10:39:35.088Z,43.70
2018-04-12T10:40:35.067Z,44.40
2018-04-12T10:41:35.096Z,45.60
2018-04-12T10:42:35.114Z,43.80
2018-04-12T10:43:35.141Z,44.80
2018-04-12T10:44:35.152Z,46.10
2018-04-12T10:45:35.168Z,46.30
2018-04-12T10:46:35.184Z,45.70
2018-04-12T10:47:35.206Z,45.90
2018-04-12T10:48:35.230Z,46.70
2018-04-12T10:49:35.250Z,45.60
2018-04-12T10:50:35.264Z,45.90
2018-04-12T10:51:35.285Z,46.10
2018-04-12T10:52:35.308Z,45.00
2018-04-12T10:53:35.327Z,46.80
2018-04-12T10:54:35.346Z,44.60
2018-04-12T10:55:35.372Z,45.10
2018-04-12T10:56:35.384Z,45.00
2018-04-12T10:57:35.403Z,44.70
2018-04-12T10:58:35.422Z,43.80
2018-04-12T10:59:35.441Z,45.30
2018-04-12T11:00:35.466Z,45.20
2018-04-12T11:01:35.482Z,43.70
2018-04-12T11:02:35.500Z,44.50
2018-04-12T11:03:35.524Z,43.70
2018-04-12T11:04:35.543Z,43.50
2018-04-12T11:05:35.562Z,43.30
2018-04-12T11:06:35.581Z,43.20
2018-04-12T11:07:35.605Z,42.90
2018-04-12T11:08:35.629Z,43.40
2018-04-12T11:09:35.641Z,42.40
2018-04-12T11:10:35.662Z,43.70
2018-04-12T11:11:35.683Z,43.30
2018-04-12T11:12:35.708Z,42.90
2018-04-12T11:13:35.723Z,43.90
2018-04-12T11:14:35.744Z,44.10
2018-04-12T11:15:35.764Z,42.00
2018-04-12T11:16:35.786Z,42.90
2018-04-12T11:17:35.803Z,43.50
2018-04-12T11:18:35.830Z,43.00
2018-04-12T11:19:35.848Z,40.70
2018-04-12T11:20:35.872Z,41.80
2018-04-12T11:21:35.888Z,42.50
2018-04-12T11:22:35.908Z,41.10
2018-04-12T11:23:35.956Z,43.20
2018-04-12T11:24:35.949Z,42.30
2018-04-12T11:25:36.002Z,42.70
2018-04-12T11:26:35.990Z,42.60
2018-04-12T11:27:36.012Z,42.20
2018-04-12T11:28:36.065Z,43.60
2018-04-12T11:29:36.052Z,41.70
2018-04-12T11:30:36.074Z,41.80
2018-04-12T11:31:36.131Z,43.80
2018-04-12T11:32:36.112Z,43.30
2018-04-12T11:33:36.135Z,43.60
2018-04-12T11:34:36.158Z,43.70
2018-04-12T11:35:36.181Z,41.90
2018-04-12T11:36:36.196Z,42.00
2018-04-12T11:37:36.216Z,43.00
2018-04-12T11:38:36.248Z,42.80
2018-04-12T11:39:36.266Z,41.70
2018-04-12T11:40:36.282Z,42.20
2018-04-12T11:41:36.300Z,42.10
2018-04-12T11:42:36.320Z,42.30
2018-04-12T11:43:36.339Z,42.70
2018-04-12T11:44:36.360Z,43.70
2018-04-12T11:45:36.380Z,44.00
2018-04-12T11:46:36.410Z,43.20
2018-04-12T11:47:36.421Z,41.90
2018-04-12T11:48:36.443Z,42.20
2018-04-12T11:49:36.477Z,43.50
2018-04-12T11:50:36.489Z,43.10
2018-04-12T11:51:36.513Z,41.50
2018-04-12T11:52:36.525Z,44.60
2018-04-12T11:53:36.543Z,43.60
2018-04-12T11:54:36.568Z,41.90
2018-04-12T11:55:36.588Z,44.20
2018-04-12T11:56:36.633Z,43.30
2018-04-12T11:57:36.628Z,42.30
2018-04-12T11:58:36.681Z,42.90
2018-04-12T11:59:36.678Z,42.40
2018-04-12T12:00:36.693Z,44.70
2018-04-12T12:01:36.712Z,44.80
2018-04-12T12:02:36.729Z,44.90
2018-04-12T12:03:36.749Z,44.50
2018-04-12T12:04:36.770Z,43.80
2018-04-12T12:05:36.790Z,43.70
2018-04-12T12:06:36.811Z,43.70
2018-04-12T12:07:36.833Z,44.20
2018-04-12T12:08:36.903Z,44.00
2018-04-12T12:09:36.877Z,43.20
2018-04-12T12:10:36.924Z,42.30
2018-04-12T12:11:36.930Z,44.10
2018-04-12T12:12:37.072Z,45.20
2018-04-12T12:13:36.958Z,43.60
2018-04-12T12:14:36.979Z,43.20
2018-04-12T12:15:36.996Z,44.50
2018-04-12T12:16:37.016Z,45.10
2018-04-12T12:17:37.101Z,42.90
2018-04-12T12:18:37.059Z,44.80
2018-04-12T12:19:37.075Z,43.40
2018-04-12T12:20:37.098Z,43.90
2018-04-12T12:21:37.119Z,43.40
2018-04-12T12:22:37.137Z,42.80
2018-04-12T12:23:37.183Z,43.10
2018-04-12T12:24:37.181Z,41.70
2018-04-12T12:25:37.201Z,43.50
2018-04-12T12:26:37.221Z,43.20
2018-04-12T12:27:37.248Z,43.00
2018-04-12T12:28:37.269Z,42.80
2018-04-12T12:29:37.285Z,44.30
2018-04-12T12:30:37.302Z,43.10
2018-04-12T12:31:37.330Z,43.20
2018-04-12T12:32:37.346Z,42.00
2018-04-12T12:33:37.366Z,41.90
2018-04-12T12:34:37.385Z,43.00
2018-04-12T12:35:37.407Z,42.40
2018-04-12T12:36:37.427Z,42.30
2018-04-12T12:37:37.451Z,43.20
2018-04-12T12:38:37.471Z,42.40
2018-04-12T12:39:37.490Z,43.40
2018-04-12T12:40:37.511Z,44.60
2018-04-12T12:41:37.535Z,43.70
2018-04-12T12:42:37.555Z,42.80
2018-04-12T12:43:37.572Z,43.30
2018-04-12T12:44:37.598Z,44.00
2018-04-12T12:45:37.613Z,44.40
2018-04-12T12:46:37.635Z,43.60
2018-04-12T12:47:37.661Z,41.80
2018-04-12T12:48:37.679Z,42.20
2018-04-12T12:49:37.700Z,42.00
2018-04-12T12:50:37.721Z,43.00
2018-04-12T12:51:37.743Z,43.40
2018-04-12T12:52:37.760Z,42.00